createdAt,value
2022-12-09T00:04:28.850Z,23.03
2022-12-09T00:09:31.426Z,22.63
2022-12-09T00:14:33.368Z,20.27
2022-12-09T00:19:35.292Z,26.93
2022-12-09T00:24:37.374Z,18.37
2022-12-09T00:29:39.239Z,21.63
2022-12-09T00:34:42.351Z,18.97
2022-12-09T00:39:44.501Z,17.53
2022-12-09T00:44:46.516Z,17.17
2022-12-09T00:49:48.684Z,16.63
2022-12-09T00:54:50.892Z,16.03
2022-12-09T00:59:52.922Z,19.00
2022-12-09T01:04:54.970Z,19.20
2022-12-09T01:09:57.247Z,26.83
2022-12-09T01:14:59.381Z,20.60
2022-12-09T01:20:01.669Z,20.93
2022-12-09T01:25:04.107Z,30.10
2022-12-09T01:30:09.430Z,24.37
2022-12-09T01:35:11.721Z,19.43
2022-12-09T01:40:16.957Z,22.10
2022-12-09T01:45:22.417Z,17.83
2022-12-09T01:50:29.392Z,19.90
2022-12-09T01:55:32.302Z,19.53
2022-12-09T02:00:34.178Z,21.13
2022-12-09T02:05:37.885Z,24.33
2022-12-09T02:11:04.330Z,19.90
2022-12-09T02:16:11.139Z,21.53
2022-12-09T02:21:23.647Z,23.37
2022-12-09T02:26:43.294Z,21.97
2022-12-09T02:32:01.234Z,20.40
2022-12-09T02:37:19.700Z,23.37
2022-12-09T02:42:32.351Z,20.53
2022-12-09T02:47:41.551Z,24.57
2022-12-09T02:52:49.119Z,23.37
2022-12-09T02:57:56.416Z,29.27
2022-12-09T03:03:03.080Z,22.97
2022-12-09T03:08:14.283Z,19.33
2022-12-09T03:13:26.821Z,22.37
2022-12-09T03:18:30.682Z,25.90
2022-12-09T03:23:35.047Z,23.97
2022-12-09T03:28:43.087Z,23.63
2022-12-09T03:33:49.197Z,28.80
2022-12-09T03:38:52.891Z,20.60
2022-12-09T03:44:12.678Z,21.97
2022-12-09T03:49:14.817Z,23.13
2022-12-09T03:54:47.194Z,24.53
2022-12-09T04:00:01.518Z,28.53
2022-12-09T04:05:04.248Z,20.77
2022-12-09T04:10:08.130Z,24.63
2022-12-09T04:15:10.535Z,27.00
2022-12-09T04:20:13.270Z,26.23
2022-12-09T04:25:17.562Z,32.07
2022-12-09T04:30:19.877Z,25.47
2022-12-09T04:35:23.107Z,27.10
2022-12-09T04:40:25.248Z,25.57
2022-12-09T04:45:27.449Z,31.27
2022-12-09T04:50:29.581Z,23.43
2022-12-09T04:55:31.535Z,30.67
2022-12-09T05:00:33.870Z,25.73
2022-12-09T05:05:40.089Z,29.73
2022-12-09T05:10:46.899Z,29.40
2022-12-09T05:15:49.203Z,26.27
2022-12-09T05:20:51.313Z,30.97
2022-12-09T05:25:55.568Z,33.17
2022-12-09T05:31:02.354Z,34.20
2022-12-09T05:36:05.074Z,37.30
2022-12-09T05:41:07.449Z,33.50
2022-12-09T05:46:10.338Z,29.10
2022-12-09T05:51:16.679Z,28.93
2022-12-09T05:56:19.930Z,44.97
2022-12-09T06:01:22.907Z,33.20
2022-12-09T06:06:27.687Z,31.00
2022-12-09T06:11:32.350Z,33.87
2022-12-09T06:16:34.912Z,33.57
2022-12-09T06:21:40.435Z,38.90
2022-12-09T06:26:43.603Z,36.77
2022-12-09T06:31:46.232Z,43.97
2022-12-09T06:36:48.623Z,37.77
2022-12-09T06:41:50.885Z,49.77
2022-12-09T06:46:53.019Z,37.13
2022-12-09T06:51:55.208Z,42.60
2022-12-09T06:56:57.335Z,42.33
2022-12-09T07:01:59.956Z,37.60
2022-12-09T07:07:02.396Z,41.70
2022-12-09T07:12:04.874Z,40.97
2022-12-09T07:17:07.712Z,44.53
2022-12-09T07:22:10.276Z,38.70
2022-12-09T07:27:19.392Z,40.27
2022-12-09T07:32:22.147Z,37.43
2022-12-09T07:37:23.980Z,45.53
2022-12-09T07:42:25.847Z,42.83
2022-12-09T07:47:30.995Z,34.47
2022-12-09T07:52:33.133Z,38.67
2022-12-09T07:57:35.358Z,50.97
2022-12-09T08:02:37.309Z,49.27
2022-12-09T08:07:44.145Z,43.07
2022-12-09T08:12:46.898Z,34.90
2022-12-09T08:17:48.903Z,40.93
2022-12-09T08:22:51.760Z,49.43
2022-12-09T08:27:54.267Z,39.97
2022-12-09T08:32:56.383Z,44.13
2022-12-09T08:37:58.895Z,38.07
2022-12-09T08:43:03.100Z,42.10
2022-12-09T08:48:06.199Z,37.97
2022-12-09T08:53:08.102Z,31.57
2022-12-09T08:58:10.471Z,23.53
2022-12-09T09:03:12.467Z,38.33
2022-12-09T09:08:15.114Z,28.40
2022-12-09T09:13:17.115Z,30.73
2022-12-09T09:18:19.801Z,36.20
2022-12-09T09:23:22.193Z,29.07
2022-12-09T09:28:30.459Z,28.17
2022-12-09T09:33:33.459Z,29.73
2022-12-09T09:38:36.050Z,33.07
2022-12-09T09:43:39.010Z,32.40
2022-12-09T09:48:41.647Z,36.33
2022-12-09T09:53:44.403Z,32.80
2022-12-09T09:59:17.748Z,34.27
2022-12-09T10:04:39.441Z,36.73
2022-12-09T10:10:14.810Z,33.83
2022-12-09T10:15:22.422Z,34.53
2022-12-09T10:20:30.631Z,37.23
2022-12-09T10:25:37.526Z,38.77
2022-12-09T10:30:44.352Z,33.80
2022-12-09T10:35:47.817Z,28.03
2022-12-09T10:41:02.811Z,39.53
2022-12-09T10:46:17.937Z,35.40
2022-12-09T10:51:39.045Z,25.63
2022-12-09T10:57:03.579Z,21.90
2022-12-09T11:02:08.958Z,25.93
2022-12-09T11:07:21.055Z,17.17
2022-12-09T11:12:36.720Z,16.53
2022-12-09T11:18:05.210Z,15.43
2022-12-09T11:23:13.561Z,17.57
2022-12-09T11:28:16.549Z,24.47
2022-12-09T11:33:22.870Z,22.00
2022-12-09T11:38:34.993Z,28.60
2022-12-09T11:43:45.988Z,35.50
2022-12-09T11:48:59.014Z,27.00
2022-12-09T11:54:10.842Z,32.23
2022-12-09T11:59:23.384Z,28.13
2022-12-09T12:04:32.583Z,25.43
2022-12-09T12:09:42.112Z,23.43
2022-12-09T12:14:45.259Z,23.60
2022-12-09T12:19:52.334Z,22.87
2022-12-09T12:25:11.190Z,24.33
2022-12-09T12:30:23.825Z,28.60
2022-12-09T12:35:40.620Z,22.93
2022-12-09T12:41:07.031Z,29.73
2022-12-09T12:46:27.416Z,25.57
2022-12-09T12:51:52.534Z,20.37
2022-12-09T12:57:26.999Z,30.73
2022-12-09T13:02:51.631Z,24.43
2022-12-09T13:08:14.518Z,27.00
2022-12-09T13:13:28.437Z,22.47
2022-12-09T13:18:38.802Z,23.33
2022-12-09T13:24:17.927Z,27.20
2022-12-09T13:29:30.181Z,27.00
2022-12-09T13:35:06.736Z,24.33
2022-12-09T13:40:21.242Z,24.77
2022-12-09T13:45:28.326Z,24.07
2022-12-09T13:50:51.313Z,30.30
2022-12-09T13:55:56.114Z,27.23
2022-12-09T14:01:36.340Z,26.37
2022-12-09T14:06:44.227Z,23.77
2022-12-09T14:11:52.337Z,20.27
2022-12-09T14:16:57.143Z,21.53
2022-12-09T14:22:21.041Z,21.63
2022-12-09T14:27:30.158Z,21.13
2022-12-09T14:32:36.769Z,19.13
2022-12-09T14:38:06.590Z,24.63
2022-12-09T14:43:32.944Z,27.37
2022-12-09T14:48:38.224Z,21.07
2022-12-09T14:53:40.238Z,24.50
2022-12-09T14:58:48.110Z,27.10
2022-12-09T15:03:55.362Z,26.67
2022-12-09T15:08:59.354Z,23.17
2022-12-09T15:14:27.207Z,23.40
2022-12-09T15:19:59.076Z,24.10
2022-12-09T15:24:53.174Z,27.07
2022-12-09T15:29:55.724Z,25.67
2022-12-09T15:35:16.943Z,25.43
2022-12-09T15:40:22.181Z,29.60
2022-12-09T15:45:27.669Z,28.27
2022-12-09T15:50:58.758Z,30.73
2022-12-09T15:56:13.261Z,28.97
2022-12-09T16:01:25.457Z,31.77
2022-12-09T16:06:37.834Z,34.97
2022-12-09T16:11:48.506Z,36.83
2022-12-09T16:16:55.347Z,29.43
2022-12-09T16:22:00.832Z,32.47
2022-12-09T16:27:05.970Z,29.20
2022-12-09T16:32:26.540Z,33.07
2022-12-09T16:37:42.691Z,28.73
2022-12-09T16:42:45.091Z,35.23
2022-12-09T16:47:47.339Z,42.40
2022-12-09T16:52:49.430Z,34.60
2022-12-09T16:57:52.063Z,26.97
2022-12-09T17:03:01.742Z,42.37
2022-12-09T17:08:04.122Z,31.77
2022-12-09T17:13:07.085Z,36.93
2022-12-09T17:18:10.001Z,35.73
2022-12-09T17:23:12.040Z,39.63
2022-12-09T17:28:13.872Z,44.03
2022-12-09T17:33:15.860Z,41.27
2022-12-09T17:38:17.832Z,38.07
2022-12-09T17:43:19.761Z,41.63
2022-12-09T17:48:21.691Z,37.53
2022-12-09T17:53:23.754Z,47.63
2022-12-09T17:58:25.819Z,39.30
2022-12-09T18:03:54.525Z,47.23
2022-12-09T18:08:50.827Z,32.67
2022-12-09T18:13:53.470Z,46.73
2022-12-09T18:18:55.324Z,28.83
2022-12-09T18:23:57.344Z,39.00
2022-12-09T18:29:00.022Z,41.80
2022-12-09T18:34:01.975Z,34.33
2022-12-09T18:39:05.020Z,37.23
2022-12-09T18:44:07.918Z,37.83
2022-12-09T18:49:14.362Z,42.90
2022-12-09T18:54:19.532Z,41.37
2022-12-09T18:59:23.340Z,33.73
2022-12-09T19:04:28.003Z,35.87
2022-12-09T19:09:34.623Z,38.00
2022-12-09T19:14:38.602Z,38.07
2022-12-09T19:19:40.511Z,32.90
2022-12-09T19:24:43.505Z,39.57
2022-12-09T19:29:45.607Z,32.57
2022-12-09T19:34:47.744Z,37.47
2022-12-09T19:39:50.295Z,31.20
2022-12-09T19:45:01.260Z,44.00
2022-12-09T19:50:04.599Z,37.57
2022-12-09T19:55:08.373Z,37.97
2022-12-09T20:00:11.342Z,38.90
2022-12-09T20:05:14.265Z,42.43
2022-12-09T20:10:16.096Z,35.40
2022-12-09T20:15:18.138Z,35.10
2022-12-09T20:20:20.018Z,37.70
2022-12-09T20:25:22.050Z,35.63
2022-12-09T20:30:24.091Z,43.03
2022-12-09T20:35:26.267Z,41.47
2022-12-09T20:40:28.353Z,34.40
2022-12-09T20:45:30.613Z,42.90
2022-12-09T20:50:38.344Z,27.57
2022-12-09T20:55:40.750Z,28.10
2022-12-09T21:00:42.763Z,27.50
2022-12-09T21:05:44.738Z,29.40
2022-12-09T21:10:46.702Z,25.77
2022-12-09T21:15:48.796Z,27.70
2022-12-09T21:20:50.838Z,23.10
2022-12-09T21:25:52.780Z,26.17
2022-12-09T21:30:54.687Z,21.67
2022-12-09T21:35:56.648Z,23.03
2022-12-09T21:41:05.606Z,24.13
2022-12-09T21:46:10.434Z,22.13
2022-12-09T21:51:13.391Z,26.60
2022-12-09T21:56:17.775Z,25.50
2022-12-09T22:01:26.193Z,29.17
2022-12-09T22:06:29.311Z,32.60
2022-12-09T22:11:34.944Z,32.60
2022-12-09T22:16:43.118Z,29.13
2022-12-09T22:21:45.466Z,35.33
2022-12-09T22:26:47.521Z,32.27
2022-12-09T22:31:49.355Z,36.40
2022-12-09T22:36:54.040Z,38.70
2022-12-09T22:41:55.831Z,32.90
2022-12-09T22:46:57.722Z,32.67
2022-12-09T22:52:00.824Z,32.23
2022-12-09T22:57:02.792Z,41.93
2022-12-09T23:02:04.661Z,39.03
2022-12-09T23:07:07.698Z,34.83
2022-12-09T23:12:09.568Z,37.97
2022-12-09T23:17:11.686Z,34.27
2022-12-09T23:22:13.502Z,34.07
2022-12-09T23:27:15.354Z,34.43
2022-12-09T23:32:17.459Z,30.40
2022-12-09T23:37:19.406Z,34.70
2022-12-09T23:42:22.123Z,36.43
2022-12-09T23:47:23.876Z,35.83
2022-12-09T23:52:25.722Z,37.43
2022-12-09T23:57:27.626Z,35.37
